sensor_id;sensor_type;location;lat;lon;timestamp;P1;durP1;ratioP1;P2;durP2;ratioP2
76968;SDS011;65905;50.140;8.684;2022-12-18T00:06:07;6.70;;;3.28;;
76968;SDS011;65905;50.140;8.684;2022-12-18T00:12:52;11.60;;;3.88;;
76968;SDS011;65905;50.140;8.684;2022-12-18T00:19:33;8.80;;;3.42;;
76968;SDS011;65905;50.140;8.684;2022-12-18T00:26:15;13.02;;;4.45;;
76968;SDS011;65905;50.140;8.684;2022-12-18T00:33:00;8.18;;;3.97;;
76968;SDS011;65905;50.140;8.684;2022-12-18T00:39:44;9.93;;;4.30;;
76968;SDS011;65905;50.140;8.684;2022-12-18T00:46:25;9.60;;;3.88;;
76968;SDS011;65905;50.140;8.684;2022-12-18T00:53:05;9.27;;;4.53;;
76968;SDS011;65905;50.140;8.684;2022-12-18T00:59:47;10.13;;;5.20;;
76968;SDS011;65905;50.140;8.684;2022-12-18T01:06:28;9.45;;;4.47;;
76968;SDS011;65905;50.140;8.684;2022-12-18T01:13:09;11.82;;;3.83;;
76968;SDS011;65905;50.140;8.684;2022-12-18T01:19:53;13.63;;;4.57;;
76968;SDS011;65905;50.140;8.684;2022-12-18T01:26:34;11.45;;;4.70;;
76968;SDS011;65905;50.140;8.684;2022-12-18T01:33:15;12.45;;;4.82;;
76968;SDS011;65905;50.140;8.684;2022-12-18T01:39:56;12.07;;;4.47;;
76968;SDS011;65905;50.140;8.684;2022-12-18T01:46:40;14.20;;;4.95;;
76968;SDS011;65905;50.140;8.684;2022-12-18T01:53:21;9.65;;;3.28;;
76968;SDS011;65905;50.140;8.684;2022-12-18T02:00:05;11.70;;;5.38;;
76968;SDS011;65905;50.140;8.684;2022-12-18T02:07:07;13.30;;;4.57;;
76968;SDS011;65905;50.140;8.684;2022-12-18T02:28:02;8.73;;;3.53;;
76968;SDS011;65905;50.140;8.684;2022-12-18T02:34:50;10.40;;;4.43;;
76968;SDS011;65905;50.140;8.684;2022-12-18T02:41:35;16.27;;;5.35;;
76968;SDS011;65905;50.140;8.684;2022-12-18T02:55:05;14.60;;;4.75;;
76968;SDS011;65905;50.140;8.684;2022-12-18T03:02:11;10.68;;;3.53;;
76968;SDS011;65905;50.140;8.684;2022-12-18T03:09:09;11.15;;;4.28;;
76968;SDS011;65905;50.140;8.684;2022-12-18T03:15:54;13.80;;;4.70;;
76968;SDS011;65905;50.140;8.684;2022-12-18T03:22:38;8.82;;;4.25;;
76968;SDS011;65905;50.140;8.684;2022-12-18T03:29:26;13.68;;;4.97;;
76968;SDS011;65905;50.140;8.684;2022-12-18T03:36:13;10.52;;;5.10;;
76968;SDS011;65905;50.140;8.684;2022-12-18T03:42:57;9.07;;;3.92;;
76968;SDS011;65905;50.140;8.684;2022-12-18T03:56:51;13.47;;;3.97;;
76968;SDS011;65905;50.140;8.684;2022-12-18T04:03:41;8.98;;;3.80;;
76968;SDS011;65905;50.140;8.684;2022-12-18T04:10:24;12.82;;;3.95;;
76968;SDS011;65905;50.140;8.684;2022-12-18T04:17:05;12.85;;;4.35;;
76968;SDS011;65905;50.140;8.684;2022-12-18T04:23:46;12.88;;;4.45;;
76968;SDS011;65905;50.140;8.684;2022-12-18T04:30:26;9.25;;;3.92;;
76968;SDS011;65905;50.140;8.684;2022-12-18T04:37:07;10.70;;;5.28;;
76968;SDS011;65905;50.140;8.684;2022-12-18T04:43:48;9.35;;;4.45;;
76968;SDS011;65905;50.140;8.684;2022-12-18T04:50:29;6.15;;;3.08;;
76968;SDS011;65905;50.140;8.684;2022-12-18T04:57:11;8.90;;;5.13;;
76968;SDS011;65905;50.140;8.684;2022-12-18T05:03:51;10.13;;;4.70;;
76968;SDS011;65905;50.140;8.684;2022-12-18T05:10:32;12.13;;;5.43;;
76968;SDS011;65905;50.140;8.684;2022-12-18T05:17:13;10.85;;;4.38;;
76968;SDS011;65905;50.140;8.684;2022-12-18T05:23:54;12.25;;;4.40;;
76968;SDS011;65905;50.140;8.684;2022-12-18T05:30:37;15.52;;;6.15;;
76968;SDS011;65905;50.140;8.684;2022-12-18T05:37:18;11.07;;;5.80;;
76968;SDS011;65905;50.140;8.684;2022-12-18T05:43:59;13.77;;;5.70;;
76968;SDS011;65905;50.140;8.684;2022-12-18T05:50:41;10.00;;;5.07;;
76968;SDS011;65905;50.140;8.684;2022-12-18T05:57:25;16.00;;;5.27;;
76968;SDS011;65905;50.140;8.684;2022-12-18T06:04:06;8.13;;;4.57;;
76968;SDS011;65905;50.140;8.684;2022-12-18T06:10:51;14.20;;;4.30;;
76968;SDS011;65905;50.140;8.684;2022-12-18T06:17:33;12.63;;;5.33;;
76968;SDS011;65905;50.140;8.684;2022-12-18T06:24:15;13.67;;;6.27;;
76968;SDS011;65905;50.140;8.684;2022-12-18T06:30:55;10.23;;;4.73;;
76968;SDS011;65905;50.140;8.684;2022-12-18T06:37:36;11.13;;;4.97;;
76968;SDS011;65905;50.140;8.684;2022-12-18T06:44:17;12.02;;;5.03;;
76968;SDS011;65905;50.140;8.684;2022-12-18T06:50:58;9.00;;;4.32;;
76968;SDS011;65905;50.140;8.684;2022-12-18T06:57:39;10.30;;;5.32;;
76968;SDS011;65905;50.140;8.684;2022-12-18T07:04:20;7.65;;;4.47;;
76968;SDS011;65905;50.140;8.684;2022-12-18T07:11:02;12.40;;;4.40;;
76968;SDS011;65905;50.140;8.684;2022-12-18T07:17:44;12.98;;;6.03;;
76968;SDS011;65905;50.140;8.684;2022-12-18T07:24:25;10.43;;;5.93;;
76968;SDS011;65905;50.140;8.684;2022-12-18T07:31:09;9.63;;;4.60;;
76968;SDS011;65905;50.140;8.684;2022-12-18T07:37:52;11.07;;;4.60;;
76968;SDS011;65905;50.140;8.684;2022-12-18T07:44:33;16.17;;;4.35;;
76968;SDS011;65905;50.140;8.684;2022-12-18T07:51:14;12.07;;;4.88;;
76968;SDS011;65905;50.140;8.684;2022-12-18T07:57:55;16.92;;;5.47;;
76968;SDS011;65905;50.140;8.684;2022-12-18T08:04:36;13.85;;;6.90;;
76968;SDS011;65905;50.140;8.684;2022-12-18T08:11:18;12.88;;;5.88;;
76968;SDS011;65905;50.140;8.684;2022-12-18T08:17:59;12.35;;;5.65;;
76968;SDS011;65905;50.140;8.684;2022-12-18T08:24:40;14.60;;;6.40;;
76968;SDS011;65905;50.140;8.684;2022-12-18T08:31:22;11.02;;;5.93;;
76968;SDS011;65905;50.140;8.684;2022-12-18T08:38:03;11.63;;;5.38;;
76968;SDS011;65905;50.140;8.684;2022-12-18T08:44:44;15.27;;;7.15;;
76968;SDS011;65905;50.140;8.684;2022-12-18T08:51:25;14.57;;;5.75;;
76968;SDS011;65905;50.140;8.684;2022-12-18T08:58:06;15.05;;;6.72;;
76968;SDS011;65905;50.140;8.684;2022-12-18T09:04:47;17.88;;;6.50;;
76968;SDS011;65905;50.140;8.684;2022-12-18T09:11:28;16.85;;;6.85;;
76968;SDS011;65905;50.140;8.684;2022-12-18T09:18:10;14.75;;;6.50;;
76968;SDS011;65905;50.140;8.684;2022-12-18T09:24:51;14.05;;;7.05;;
76968;SDS011;65905;50.140;8.684;2022-12-18T09:31:32;17.80;;;7.30;;
76968;SDS011;65905;50.140;8.684;2022-12-18T09:38:15;20.08;;;8.70;;
76968;SDS011;65905;50.140;8.684;2022-12-18T09:44:58;17.52;;;8.32;;
76968;SDS011;65905;50.140;8.684;2022-12-18T09:51:45;18.58;;;8.82;;
76968;SDS011;65905;50.140;8.684;2022-12-18T09:58:39;27.08;;;10.27;;
76968;SDS011;65905;50.140;8.684;2022-12-18T10:05:29;25.10;;;10.18;;
76968;SDS011;65905;50.140;8.684;2022-12-18T10:12:22;15.50;;;8.55;;
76968;SDS011;65905;50.140;8.684;2022-12-18T10:19:22;19.30;;;8.80;;
76968;SDS011;65905;50.140;8.684;2022-12-18T10:26:17;23.75;;;11.82;;
76968;SDS011;65905;50.140;8.684;2022-12-18T10:33:01;20.73;;;10.35;;
76968;SDS011;65905;50.140;8.684;2022-12-18T10:39:43;24.45;;;8.98;;
76968;SDS011;65905;50.140;8.684;2022-12-18T10:46:24;15.65;;;8.95;;
76968;SDS011;65905;50.140;8.684;2022-12-18T10:53:05;24.67;;;10.10;;
76968;SDS011;65905;50.140;8.684;2022-12-18T10:59:50;19.40;;;7.75;;
76968;SDS011;65905;50.140;8.684;2022-12-18T11:06:36;18.95;;;7.43;;
76968;SDS011;65905;50.140;8.684;2022-12-18T11:13:37;21.15;;;7.72;;
76968;SDS011;65905;50.140;8.684;2022-12-18T11:20:20;21.80;;;8.93;;
76968;SDS011;65905;50.140;8.684;2022-12-18T11:27:03;24.88;;;8.57;;
76968;SDS011;65905;50.140;8.684;2022-12-18T11:48:34;25.38;;;9.90;;
76968;SDS011;65905;50.140;8.684;2022-12-18T11:56:05;19.40;;;7.53;;
